createdAt,value
2022-11-21T00:02:22.817Z,3.70
2022-11-21T00:07:26.381Z,3.43
2022-11-21T00:12:29.999Z,3.50
2022-11-21T00:17:35.120Z,3.37
2022-11-21T00:22:38.755Z,3.80
2022-11-21T00:27:42.834Z,3.60
2022-11-21T00:32:47.830Z,3.60
2022-11-21T00:37:51.339Z,4.30
2022-11-21T00:42:54.984Z,3.87
2022-11-21T00:48:00.007Z,3.43
2022-11-21T00:53:03.621Z,3.70
2022-11-21T00:58:07.166Z,3.40
2022-11-21T01:03:12.458Z,3.50
2022-11-21T01:08:16.008Z,3.50
2022-11-21T01:13:19.607Z,3.00
2022-11-21T01:18:24.538Z,3.83
2022-11-21T01:23:29.038Z,3.70
2022-11-21T01:28:33.218Z,3.20
2022-11-21T01:33:38.721Z,1.70
2022-11-21T01:38:43.768Z,1.80
2022-11-21T01:43:48.086Z,2.00
2022-11-21T01:48:57.135Z,2.83
2022-11-21T01:54:06.163Z,3.40
2022-11-21T01:59:12.972Z,3.03
2022-11-21T02:04:18.213Z,3.10
2022-11-21T02:09:22.630Z,2.67
2022-11-21T02:14:27.558Z,3.30
2022-11-21T02:19:43.066Z,3.23
2022-11-21T02:24:50.796Z,3.30
2022-11-21T02:29:56.264Z,3.07
2022-11-21T02:34:59.897Z,3.43
2022-11-21T02:40:08.186Z,3.00
2022-11-21T02:45:19.806Z,2.20
2022-11-21T02:50:27.972Z,1.70
2022-11-21T02:55:31.577Z,2.07
2022-11-21T03:00:38.109Z,3.40
2022-11-21T03:05:41.975Z,2.80
2022-11-21T03:10:45.659Z,2.70
2022-11-21T03:15:50.707Z,2.43
2022-11-21T03:20:54.162Z,2.47
2022-11-21T03:25:57.785Z,3.00
2022-11-21T03:31:02.910Z,2.53
2022-11-21T03:36:06.833Z,2.90
2022-11-21T03:41:29.531Z,2.60
2022-11-21T03:46:36.709Z,2.77
2022-11-21T03:51:40.578Z,2.60
2022-11-21T03:56:44.162Z,2.10
2022-11-21T04:01:49.327Z,2.73
2022-11-21T04:06:52.936Z,2.70
2022-11-21T04:11:56.448Z,2.70
2022-11-21T04:17:01.465Z,2.33
2022-11-21T04:22:05.436Z,3.40
2022-11-21T04:27:09.027Z,4.13
2022-11-21T04:32:14.113Z,4.50
2022-11-21T04:37:17.761Z,3.90
2022-11-21T04:42:21.346Z,3.63
2022-11-21T04:47:26.475Z,3.23
2022-11-21T04:52:30.077Z,2.87
2022-11-21T04:57:35.874Z,2.90
2022-11-21T05:02:44.192Z,2.77
2022-11-21T05:07:47.691Z,3.37
2022-11-21T05:13:15.901Z,3.20
2022-11-21T05:18:21.504Z,1.13
2022-11-21T05:23:25.163Z,2.50
2022-11-21T05:28:28.765Z,2.43
2022-11-21T05:33:33.838Z,3.30
2022-11-21T05:38:37.548Z,3.50
2022-11-21T05:43:50.337Z,2.90
2022-11-21T05:48:56.839Z,2.90
2022-11-21T05:54:01.281Z,2.43
2022-11-21T05:59:05.335Z,2.30
2022-11-21T06:04:29.186Z,2.40
2022-11-21T06:09:47.262Z,2.90
2022-11-21T06:14:50.874Z,2.30
2022-11-21T06:20:10.495Z,2.60
2022-11-21T06:25:14.142Z,2.40
2022-11-21T06:30:22.183Z,1.60
2022-11-21T06:35:27.469Z,1.13
2022-11-21T06:40:30.982Z,1.43
2022-11-21T06:45:35.084Z,1.27
2022-11-21T06:50:40.039Z,1.30
2022-11-21T06:55:43.716Z,1.40
2022-11-21T07:00:48.983Z,1.40
2022-11-21T07:05:58.712Z,1.50
2022-11-21T07:11:24.179Z,1.30
2022-11-21T07:16:31.004Z,1.40
2022-11-21T07:21:35.975Z,1.40
2022-11-21T07:26:39.568Z,1.90
2022-11-21T07:31:43.095Z,1.53
2022-11-21T07:36:48.166Z,2.13
2022-11-21T07:41:51.764Z,4.80
2022-11-21T07:46:56.774Z,2.57
2022-11-21T07:52:01.817Z,2.47
2022-11-21T07:57:05.777Z,2.63
2022-11-21T08:02:09.483Z,2.77
2022-11-21T08:07:14.702Z,2.80
2022-11-21T08:12:18.332Z,3.00
2022-11-21T08:17:21.852Z,2.57
2022-11-21T08:22:26.863Z,2.33
2022-11-21T08:27:30.409Z,2.20
2022-11-21T08:32:34.277Z,1.90
2022-11-21T08:37:39.524Z,2.17
2022-11-21T08:42:43.193Z,2.57
2022-11-21T08:47:46.926Z,2.30
2022-11-21T08:53:01.954Z,1.73
2022-11-21T08:58:10.126Z,2.93
2022-11-21T09:03:17.832Z,2.93
2022-11-21T09:08:29.450Z,3.30
2022-11-21T09:14:46.821Z,2.97
2022-11-21T09:19:51.662Z,3.20
2022-11-21T09:24:57.947Z,3.00
2022-11-21T09:30:25.380Z,2.47
2022-11-21T09:35:48.010Z,3.13
2022-11-21T09:40:56.362Z,3.53
2022-11-21T09:46:10.402Z,2.63
2022-11-21T09:51:33.615Z,2.40
2022-11-21T09:57:08.867Z,2.10
2022-11-21T10:02:57.193Z,2.10
2022-11-21T10:27:32.519Z,2.53
2022-11-21T10:33:12.520Z,2.87
2022-11-21T10:39:27.352Z,2.43
2022-11-21T10:45:12.153Z,2.40
2022-11-21T10:50:46.790Z,2.60
2022-11-21T10:56:09.305Z,1.90
2022-11-21T11:01:30.264Z,1.90
2022-11-21T11:06:42.643Z,2.23
2022-11-21T11:11:48.591Z,1.93
2022-11-21T11:17:02.509Z,1.90
2022-11-21T11:22:36.500Z,1.70
2022-11-21T11:27:43.203Z,1.90
2022-11-21T11:32:48.630Z,1.70
2022-11-21T11:38:05.427Z,1.60
2022-11-21T11:43:57.052Z,1.70
2022-11-21T11:49:21.805Z,2.00
2022-11-21T11:54:28.649Z,3.73
2022-11-21T11:59:47.086Z,3.17
2022-11-21T12:05:01.758Z,2.20
2022-11-21T12:10:19.070Z,2.33
2022-11-21T12:15:45.317Z,2.37
2022-11-21T14:57:07.740Z,2.70
2022-11-21T16:38:13.818Z,5.10
2022-11-21T16:43:24.135Z,4.93
2022-11-21T16:48:27.764Z,11.17
2022-11-21T16:53:36.365Z,5.83
2022-11-21T16:58:41.848Z,5.67
2022-11-21T17:03:47.558Z,5.17
2022-11-21T17:08:56.519Z,4.40
2022-11-21T17:14:03.883Z,3.50
2022-11-21T17:19:08.969Z,3.40
2022-11-21T17:24:17.384Z,3.87
2022-11-21T17:29:24.923Z,3.50
2022-11-21T17:34:33.081Z,3.00
2022-11-21T17:39:38.994Z,4.03
2022-11-21T17:44:43.305Z,4.10
2022-11-21T17:49:48.174Z,4.03
2022-11-21T17:54:54.365Z,3.80
2022-11-21T17:59:59.641Z,3.47
2022-11-21T18:05:03.645Z,4.10
2022-11-21T18:10:40.773Z,4.63
2022-11-21T18:15:36.287Z,6.43
2022-11-21T18:20:43.845Z,6.50
2022-11-21T18:25:50.174Z,5.23
2022-11-21T18:30:54.743Z,4.93
2022-11-21T18:36:00.923Z,4.70
2022-11-21T18:41:12.202Z,4.33
2022-11-21T18:46:17.781Z,4.63
2022-11-21T18:51:24.773Z,5.67
2022-11-21T18:56:32.272Z,6.67
2022-11-21T19:01:40.028Z,9.60
2022-11-21T19:06:45.023Z,5.40
2022-11-21T19:11:51.912Z,7.20
2022-11-21T19:16:56.288Z,4.70
2022-11-21T19:22:02.375Z,5.00
2022-11-21T19:27:09.030Z,4.40
2022-11-21T19:32:13.984Z,5.50
2022-11-21T19:37:19.926Z,5.83
2022-11-21T19:42:29.710Z,6.30
2022-11-21T19:47:37.318Z,5.77
2022-11-21T19:52:43.078Z,5.97
2022-11-21T19:57:49.319Z,8.10
2022-11-21T20:02:54.605Z,8.60
2022-11-21T20:08:04.924Z,7.63
2022-11-21T20:13:18.660Z,6.57
2022-11-21T20:18:24.059Z,7.00
2022-11-21T20:23:40.608Z,6.43
2022-11-21T20:28:49.736Z,8.23
2022-11-21T20:33:56.064Z,9.70
2022-11-21T20:39:02.039Z,9.23
2022-11-21T20:49:34.949Z,8.33
2022-11-21T20:54:40.894Z,8.27
2022-11-21T20:59:50.164Z,8.53
2022-11-21T21:04:53.942Z,8.67
2022-11-21T21:09:59.403Z,8.53
2022-11-21T21:15:06.024Z,8.30
2022-11-21T21:20:11.444Z,9.23
2022-11-21T21:25:15.684Z,9.50
2022-11-21T21:30:22.387Z,9.03
2022-11-21T21:35:26.846Z,8.30
2022-11-21T21:40:30.627Z,8.57
2022-11-21T21:45:35.639Z,9.20
2022-11-21T21:50:39.228Z,8.13
2022-11-21T21:55:42.766Z,8.67
2022-11-21T22:00:47.721Z,8.73
2022-11-21T22:05:51.166Z,8.10
2022-11-21T22:11:01.405Z,8.00
2022-11-21T22:16:08.107Z,8.07
2022-11-21T22:21:15.904Z,8.50
2022-11-21T22:26:19.761Z,8.23
2022-11-21T22:31:24.757Z,8.50
2022-11-21T22:36:28.432Z,8.43
2022-11-21T22:41:31.917Z,8.43
2022-11-21T22:46:36.896Z,8.40
2022-11-21T22:51:40.444Z,10.50
2022-11-21T22:56:44.019Z,9.97
2022-11-21T23:01:49.152Z,11.03
2022-11-21T23:06:52.760Z,11.03
2022-11-21T23:11:56.228Z,11.90
2022-11-21T23:17:01.307Z,12.50
2022-11-21T23:22:04.785Z,12.10
2022-11-21T23:27:08.486Z,12.60
2022-11-21T23:38:15.121Z,12.73
2022-11-21T23:43:19.343Z,12.30
2022-11-21T23:48:24.347Z,12.00
2022-11-21T23:53:30.381Z,12.43
2022-11-21T23:58:34.132Z,12.37
